createdAt,value
2023-03-19T00:01:14.725Z,100601.75
2023-03-19T00:03:10.793Z,100606.27
2023-03-19T00:05:04.565Z,100605.83
2023-03-19T00:06:57.488Z,100603.15
2023-03-19T00:08:50.504Z,100603.08
2023-03-19T00:10:43.451Z,100600.72
2023-03-19T00:12:36.710Z,100602.10
2023-03-19T00:14:31.089Z,100602.56
2023-03-19T00:16:24.164Z,100603.20
2023-03-19T00:18:17.139Z,100603.36
2023-03-19T00:20:12.457Z,100609.36
2023-03-19T00:22:05.718Z,100610.70
2023-03-19T00:24:02.380Z,100611.70
2023-03-19T00:25:55.866Z,100610.64
2023-03-19T00:27:48.895Z,100612.20
2023-03-19T00:29:41.949Z,100611.42
2023-03-19T00:31:36.684Z,100612.67
2023-03-19T00:33:29.631Z,100610.55
2023-03-19T00:35:22.843Z,100607.63
2023-03-19T00:37:17.524Z,100610.38
2023-03-19T00:39:10.841Z,100613.16
2023-03-19T00:41:05.885Z,100613.13
2023-03-19T00:42:59.095Z,100613.10
2023-03-19T00:44:52.083Z,100614.42
2023-03-19T00:46:46.569Z,100613.04
2023-03-19T00:48:39.723Z,100615.65
2023-03-19T00:50:33.902Z,100614.45
2023-03-19T00:52:26.961Z,100611.09
2023-03-19T00:54:20.001Z,100615.15
2023-03-19T00:56:14.893Z,100612.00
2023-03-19T00:58:07.957Z,100610.55
2023-03-19T01:00:01.922Z,100609.66
2023-03-19T01:01:55.070Z,100612.00
2023-03-19T01:03:48.013Z,100609.20
2023-03-19T01:05:41.597Z,100612.08
2023-03-19T01:07:34.631Z,100610.52
2023-03-19T01:09:27.838Z,100610.23
2023-03-19T01:11:21.032Z,100607.89
2023-03-19T01:13:14.493Z,100608.77
2023-03-19T01:15:08.881Z,100609.39
2023-03-19T01:17:02.645Z,100610.71
2023-03-19T01:18:55.665Z,100608.96
2023-03-19T01:20:48.744Z,100609.39
2023-03-19T01:22:43.847Z,100610.89
2023-03-19T01:24:36.891Z,100609.40
2023-03-19T01:26:29.872Z,100607.97
2023-03-19T01:28:31.906Z,100605.77
2023-03-19T01:30:24.961Z,100605.67
2023-03-19T01:32:40.443Z,100601.16
2023-03-19T01:34:57.338Z,100599.58
2023-03-19T01:36:50.593Z,100601.36
2023-03-19T01:38:49.115Z,100600.97
2023-03-19T01:40:47.605Z,100595.91
2023-03-19T01:43:17.976Z,100592.16
2023-03-19T01:45:55.664Z,100590.04
2023-03-19T01:48:16.984Z,100587.67
2023-03-19T01:50:28.881Z,100586.98
2023-03-19T01:52:41.489Z,100586.89
2023-03-19T01:54:44.570Z,100589.78
2023-03-19T01:56:52.163Z,100592.16
2023-03-19T01:58:57.247Z,100592.00
2023-03-19T02:01:13.823Z,100593.16
2023-03-19T02:03:07.671Z,100595.44
2023-03-19T02:05:25.776Z,100591.45
2023-03-19T02:07:20.988Z,100590.80
2023-03-19T02:09:15.290Z,100598.11
2023-03-19T02:11:08.552Z,100595.99
2023-03-19T02:13:01.709Z,100591.87
2023-03-19T02:14:55.151Z,100585.16
2023-03-19T02:16:48.818Z,100589.15
2023-03-19T02:18:42.896Z,100587.35
2023-03-19T02:20:51.202Z,100583.62
2023-03-19T02:22:52.400Z,100584.48
2023-03-19T02:25:06.390Z,100586.80
2023-03-19T02:27:00.256Z,100593.69
2023-03-19T02:28:53.922Z,100591.70
2023-03-19T02:30:55.058Z,100593.57
2023-03-19T02:32:48.115Z,100595.66
2023-03-19T02:34:43.315Z,100597.18
2023-03-19T02:36:41.645Z,100601.79
2023-03-19T02:38:36.374Z,100598.61
2023-03-19T02:40:34.538Z,100599.27
2023-03-19T02:42:29.847Z,100596.36
2023-03-19T02:44:22.901Z,100594.17
2023-03-19T02:46:16.712Z,100597.56
2023-03-19T02:48:09.815Z,100597.34
2023-03-19T02:50:02.871Z,100597.80
2023-03-19T02:51:56.126Z,100602.94
2023-03-19T02:53:49.274Z,100605.52
2023-03-19T02:55:42.736Z,100605.17
2023-03-19T02:57:35.888Z,100610.81
2023-03-19T02:59:28.837Z,100611.52
2023-03-19T03:01:21.916Z,100611.18
2023-03-19T03:03:15.147Z,100613.41
2023-03-19T03:05:09.322Z,100620.09
2023-03-19T03:07:05.039Z,100623.73
2023-03-19T03:08:58.292Z,100624.40
2023-03-19T03:10:51.551Z,100627.91
2023-03-19T03:12:44.601Z,100626.90
2023-03-19T03:14:38.166Z,100628.02
2023-03-19T03:16:31.512Z,100629.84
2023-03-19T03:18:24.784Z,100628.61
2023-03-19T03:20:19.819Z,100634.98
2023-03-19T03:22:13.234Z,100634.91
2023-03-19T03:24:07.102Z,100634.77
2023-03-19T03:26:00.683Z,100633.67
2023-03-19T03:27:53.722Z,100632.16
2023-03-19T03:29:47.076Z,100634.71
2023-03-19T03:31:40.233Z,100636.63
2023-03-19T03:33:33.483Z,100639.27
2023-03-19T03:35:27.540Z,100637.95
2023-03-19T03:37:20.579Z,100640.11
2023-03-19T03:39:14.286Z,100645.37
2023-03-19T03:41:08.146Z,100647.29
2023-03-19T03:43:01.508Z,100650.48
2023-03-19T03:44:55.370Z,100644.86
2023-03-19T03:46:49.447Z,100646.99
2023-03-19T03:48:42.600Z,100649.10
2023-03-19T03:50:36.672Z,100644.73
2023-03-19T03:52:34.268Z,100646.27
2023-03-19T03:54:27.487Z,100639.75
2023-03-19T03:56:20.948Z,100640.96
2023-03-19T03:58:14.032Z,100643.23
2023-03-19T04:00:07.972Z,100639.08
2023-03-19T04:02:07.624Z,100635.65
2023-03-19T04:04:01.142Z,100633.12
2023-03-19T04:05:54.186Z,100634.91
2023-03-19T04:07:47.956Z,100636.59
2023-03-19T04:09:41.410Z,100639.84
2023-03-19T04:11:35.858Z,100635.63
2023-03-19T04:13:29.467Z,100631.41
2023-03-19T04:15:23.026Z,100629.63
2023-03-19T04:17:17.013Z,100625.75
2023-03-19T04:19:10.252Z,100629.25
2023-03-19T04:21:05.108Z,100630.80
2023-03-19T04:22:58.193Z,100631.34
2023-03-19T04:24:51.458Z,100632.19
2023-03-19T04:26:47.166Z,100635.65
2023-03-19T04:28:40.416Z,100637.58
2023-03-19T04:30:35.406Z,100640.09
2023-03-19T04:32:28.767Z,100638.52
2023-03-19T04:34:21.827Z,100640.36
2023-03-19T04:36:14.979Z,100637.70
2023-03-19T04:38:09.153Z,100635.48
2023-03-19T04:40:02.311Z,100644.85
2023-03-19T04:41:57.612Z,100643.44
2023-03-19T04:43:53.526Z,100645.13
2023-03-19T04:45:46.933Z,100643.84
2023-03-19T04:47:40.216Z,100643.98
2023-03-19T04:49:33.701Z,100641.25
2023-03-19T04:51:27.674Z,100638.20
2023-03-19T04:53:20.778Z,100636.68
2023-03-19T04:55:14.595Z,100638.71
2023-03-19T04:57:18.099Z,100643.43
2023-03-19T04:59:12.380Z,100644.88
2023-03-19T05:01:05.618Z,100642.48
2023-03-19T05:03:37.521Z,100644.81
2023-03-19T05:05:30.851Z,100641.50
2023-03-19T05:07:24.516Z,100640.20
2023-03-19T05:09:17.558Z,100636.53
2023-03-19T05:11:10.810Z,100634.28
2023-03-19T05:13:15.435Z,100630.89
2023-03-19T05:15:12.582Z,100635.36
2023-03-19T05:17:13.640Z,100636.52
2023-03-19T05:19:27.454Z,100635.03
2023-03-19T05:21:21.642Z,100633.98
2023-03-19T05:23:16.080Z,100638.27
2023-03-19T05:25:13.473Z,100637.08
2023-03-19T05:27:07.626Z,100636.63
2023-03-19T05:29:11.130Z,100635.09
2023-03-19T05:31:15.431Z,100631.67
2023-03-19T05:33:13.209Z,100633.23
2023-03-19T05:35:08.417Z,100633.85
2023-03-19T05:37:01.878Z,100630.91
2023-03-19T05:38:54.928Z,100632.66
2023-03-19T05:40:52.571Z,100627.20
2023-03-19T05:42:59.151Z,100629.17
2023-03-19T05:44:53.847Z,100633.35
2023-03-19T05:46:50.705Z,100634.15
2023-03-19T05:48:44.429Z,100643.18
2023-03-19T05:50:38.331Z,100646.08
2023-03-19T05:52:46.115Z,100648.75
2023-03-19T05:54:40.191Z,100655.72
2023-03-19T05:56:42.456Z,100659.83
2023-03-19T05:58:59.112Z,100658.98
2023-03-19T06:00:56.716Z,100661.39
2023-03-19T06:02:51.496Z,100663.85
2023-03-19T06:04:59.993Z,100658.81
2023-03-19T06:06:55.735Z,100665.04
2023-03-19T06:08:49.084Z,100668.61
2023-03-19T06:11:03.136Z,100670.02
2023-03-19T06:12:56.080Z,100676.42
2023-03-19T06:15:21.590Z,100681.70
2023-03-19T06:17:34.304Z,100683.64
2023-03-19T06:19:29.811Z,100686.64
2023-03-19T06:21:23.277Z,100690.04
2023-03-19T06:23:17.039Z,100693.88
2023-03-19T06:25:10.301Z,100693.35
2023-03-19T06:27:04.061Z,100693.65
2023-03-19T06:28:57.520Z,100691.70
2023-03-19T06:30:50.985Z,100689.66
2023-03-19T06:33:07.119Z,100695.88
2023-03-19T06:35:00.535Z,100694.28
2023-03-19T06:36:54.200Z,100699.02
2023-03-19T06:38:47.270Z,100696.39
2023-03-19T06:40:40.310Z,100694.29
2023-03-19T06:42:33.485Z,100692.59
2023-03-19T06:44:27.539Z,100690.83
2023-03-19T06:46:20.830Z,100690.52
2023-03-19T06:48:14.145Z,100692.63
2023-03-19T06:50:08.314Z,100686.23
2023-03-19T06:52:01.556Z,100690.35
2023-03-19T06:53:55.141Z,100688.11
2023-03-19T06:55:48.599Z,100695.00
2023-03-19T06:57:41.558Z,100693.42
2023-03-19T06:59:35.008Z,100697.88
2023-03-19T07:01:28.000Z,100700.45
2023-03-19T07:03:21.934Z,100702.30
2023-03-19T07:05:15.804Z,100700.93
2023-03-19T07:07:09.058Z,100699.27
2023-03-19T07:09:02.520Z,100703.63
2023-03-19T07:11:05.401Z,100702.23
2023-03-19T07:12:58.937Z,100699.60
2023-03-19T07:14:52.006Z,100701.10
2023-03-19T07:16:45.705Z,100701.22
2023-03-19T07:18:39.028Z,100704.41
2023-03-19T07:20:33.791Z,100704.63
2023-03-19T07:22:27.184Z,100708.55
2023-03-19T07:24:20.842Z,100707.38
2023-03-19T07:26:14.207Z,100711.63
2023-03-19T07:28:07.674Z,100713.56
2023-03-19T07:30:01.222Z,100713.40
2023-03-19T07:31:54.634Z,100711.71
2023-03-19T07:33:48.250Z,100704.80
2023-03-19T07:35:42.172Z,100710.26
2023-03-19T07:37:35.269Z,100709.42
2023-03-19T07:39:28.432Z,100708.36
2023-03-19T07:41:21.969Z,100711.58
2023-03-19T07:43:15.648Z,100713.27
2023-03-19T07:45:09.730Z,100720.65
2023-03-19T07:47:03.498Z,100715.80
2023-03-19T07:48:56.753Z,100712.90
2023-03-19T07:50:53.389Z,100710.30
2023-03-19T07:52:51.750Z,100713.25
2023-03-19T07:54:44.906Z,100708.84
2023-03-19T07:56:37.960Z,100704.73
2023-03-19T07:58:31.007Z,100710.58
2023-03-19T08:00:24.521Z,100703.43
2023-03-19T08:02:21.592Z,100705.39
2023-03-19T08:04:16.682Z,100697.86
2023-03-19T08:06:10.310Z,100690.86
2023-03-19T08:08:04.028Z,100691.14
2023-03-19T08:09:58.317Z,100691.91
2023-03-19T08:11:51.590Z,100691.36
2023-03-19T08:13:44.729Z,100691.50
2023-03-19T08:15:37.779Z,100686.40
2023-03-19T08:17:34.417Z,100683.20
2023-03-19T08:19:28.389Z,100688.95
2023-03-19T08:21:21.641Z,100690.05
2023-03-19T08:23:15.830Z,100689.44
2023-03-19T08:25:10.700Z,100692.38
2023-03-19T08:27:04.482Z,100690.29
2023-03-19T08:28:57.736Z,100689.67
2023-03-19T08:30:51.461Z,100684.30
2023-03-19T08:32:49.337Z,100678.11
2023-03-19T08:34:42.423Z,100677.00
2023-03-19T08:36:36.647Z,100675.00
2023-03-19T08:38:29.865Z,100676.52
2023-03-19T08:40:23.925Z,100679.27
2023-03-19T08:42:16.981Z,100674.27
2023-03-19T08:44:10.127Z,100678.23
2023-03-19T08:46:05.000Z,100678.95
2023-03-19T08:47:58.804Z,100680.98
2023-03-19T08:49:52.569Z,100683.12
2023-03-19T08:51:46.017Z,100689.67
2023-03-19T08:53:39.272Z,100693.41
2023-03-19T08:55:32.628Z,100692.89
2023-03-19T08:57:26.072Z,100690.13
2023-03-19T08:59:20.060Z,100689.11
2023-03-19T09:01:14.684Z,100690.76
2023-03-19T09:03:07.697Z,100692.52
2023-03-19T09:05:04.628Z,100691.48
2023-03-19T09:07:09.055Z,100690.23
2023-03-19T09:09:02.624Z,100690.02
2023-03-19T09:10:56.348Z,100685.36
2023-03-19T09:12:49.442Z,100683.27
2023-03-19T09:14:45.340Z,100685.75
2023-03-19T09:16:39.736Z,100689.95
2023-03-19T09:18:34.116Z,100687.48
2023-03-19T09:20:27.987Z,100689.16
2023-03-19T09:22:22.720Z,100694.66
2023-03-19T09:24:16.546Z,100689.13
2023-03-19T09:26:09.614Z,100690.80
2023-03-19T09:28:03.266Z,100687.50
2023-03-19T09:29:56.620Z,100690.21
2023-03-19T09:31:49.686Z,100691.67
2023-03-19T09:33:43.336Z,100693.88
2023-03-19T09:35:37.220Z,100688.98
2023-03-19T09:37:30.462Z,100691.30
2023-03-19T09:39:24.131Z,100693.59
2023-03-19T09:42:00.347Z,100690.27
2023-03-19T09:44:05.153Z,100689.29
2023-03-19T09:46:02.030Z,100688.29
2023-03-19T09:48:00.940Z,100691.98
2023-03-19T09:49:58.214Z,100689.20
2023-03-19T09:51:54.887Z,100690.69
2023-03-19T09:53:57.515Z,100686.77
2023-03-19T09:55:54.176Z,100685.83
2023-03-19T09:57:48.338Z,100688.87
2023-03-19T09:59:41.979Z,100685.13
2023-03-19T10:01:37.501Z,100687.81
2023-03-19T10:03:32.178Z,100685.39
2023-03-19T10:05:53.749Z,100681.48
2023-03-19T10:08:24.056Z,100686.10
2023-03-19T10:10:42.082Z,100685.64
2023-03-19T10:12:44.257Z,100687.73
2023-03-19T10:15:02.257Z,100684.70
2023-03-19T10:16:59.760Z,100678.83
2023-03-19T10:18:57.203Z,100676.49
2023-03-19T10:21:35.785Z,100677.92
2023-03-19T10:23:32.112Z,100676.67
2023-03-19T10:25:29.558Z,100675.11
2023-03-19T10:27:26.508Z,100668.79
2023-03-19T10:29:22.531Z,100670.73
2023-03-19T10:31:30.255Z,100669.39
2023-03-19T10:33:28.937Z,100672.89
2023-03-19T10:35:41.755Z,100673.34
2023-03-19T10:37:35.896Z,100678.80
2023-03-19T10:39:31.712Z,100678.09
2023-03-19T10:41:45.855Z,100677.40
2023-03-19T10:43:40.238Z,100677.55
2023-03-19T10:45:39.022Z,100674.86
2023-03-19T10:47:39.196Z,100668.45
2023-03-19T10:49:36.451Z,100672.13
2023-03-19T10:51:29.759Z,100670.82
2023-03-19T10:53:34.303Z,100673.64
2023-03-19T10:55:31.533Z,100668.30
2023-03-19T10:57:29.284Z,100671.09
2023-03-19T10:59:40.454Z,100670.81
2023-03-19T11:01:36.593Z,100666.83
2023-03-19T11:03:49.780Z,100670.30
2023-03-19T11:05:42.949Z,100667.39
2023-03-19T11:07:37.534Z,100665.27
2023-03-19T11:09:35.821Z,100663.13
2023-03-19T11:11:50.861Z,100663.56
2023-03-19T11:13:47.155Z,100666.79
2023-03-19T11:15:40.552Z,100661.33
2023-03-19T11:17:39.975Z,100660.14
2023-03-19T11:19:41.327Z,100656.94
2023-03-19T11:21:35.992Z,100651.92
2023-03-19T11:23:30.737Z,100647.13
2023-03-19T11:25:28.671Z,100642.11
2023-03-19T11:27:35.724Z,100642.57
2023-03-19T11:29:29.914Z,100643.84
2023-03-19T11:31:52.627Z,100643.73
2023-03-19T11:34:04.341Z,100647.48
2023-03-19T11:36:11.174Z,100650.88
2023-03-19T11:38:05.285Z,100650.52
2023-03-19T11:40:10.825Z,100651.34
2023-03-19T11:42:28.478Z,100646.70
2023-03-19T11:44:49.731Z,100640.70
2023-03-19T11:46:54.334Z,100636.67
2023-03-19T11:49:05.584Z,100635.42
2023-03-19T11:51:48.083Z,100634.23
2023-03-19T11:54:11.851Z,100635.44
2023-03-19T11:56:33.893Z,100631.94
2023-03-19T11:58:45.779Z,100628.63
2023-03-19T12:00:50.814Z,100629.02
2023-03-19T12:02:57.369Z,100629.44
2023-03-19T12:05:05.678Z,100629.14
2023-03-19T12:07:20.034Z,100633.45
2023-03-19T12:09:34.583Z,100636.83
2023-03-19T12:11:53.924Z,100639.35
2023-03-19T12:13:56.423Z,100634.75
2023-03-19T12:16:11.465Z,100639.02
2023-03-19T12:18:26.718Z,100637.19
2023-03-19T12:20:33.950Z,100640.64
2023-03-19T12:22:48.494Z,100638.76
2023-03-19T12:25:04.374Z,100637.71
2023-03-19T12:27:06.344Z,100639.59
2023-03-19T12:29:10.306Z,100637.91
2023-03-19T12:31:31.812Z,100636.40
2023-03-19T12:33:34.762Z,100640.66
2023-03-19T12:35:39.378Z,100638.98
2023-03-19T12:37:42.458Z,100635.56
2023-03-19T12:39:41.225Z,100636.71
2023-03-19T12:41:40.275Z,100633.24
2023-03-19T12:43:54.189Z,100634.98
2023-03-19T12:46:03.483Z,100640.48
2023-03-19T12:48:14.882Z,100640.27
2023-03-19T12:50:12.535Z,100640.24
2023-03-19T12:52:31.805Z,100637.41
2023-03-19T12:54:29.508Z,100637.51
2023-03-19T12:56:51.084Z,100637.22
2023-03-19T12:58:58.617Z,100634.59
2023-03-19T13:00:51.827Z,100635.11
2023-03-19T13:03:01.781Z,100629.98
2023-03-19T13:05:23.505Z,100629.55
2023-03-19T13:07:40.721Z,100627.51
2023-03-19T13:09:40.752Z,100622.34
2023-03-19T13:11:58.764Z,100621.97
2023-03-19T13:14:00.152Z,100619.96
2023-03-19T13:15:59.010Z,100618.78
2023-03-19T13:18:40.369Z,100619.77
2023-03-19T13:20:57.448Z,100617.16
2023-03-19T13:23:02.787Z,100614.84
2023-03-19T13:25:03.138Z,100614.23
2023-03-19T13:27:01.643Z,100613.34
2023-03-19T13:29:08.511Z,100610.41
2023-03-19T13:31:31.453Z,100610.87
2023-03-19T13:33:29.234Z,100611.23
2023-03-19T13:35:33.816Z,100605.86
2023-03-19T13:37:27.665Z,100601.66
2023-03-19T13:39:28.836Z,100600.57
2023-03-19T13:41:35.935Z,100594.36
2023-03-19T13:43:29.819Z,100591.52
2023-03-19T13:45:40.109Z,100590.61
2023-03-19T13:47:38.854Z,100592.96
2023-03-19T13:49:35.870Z,100594.13
2023-03-19T13:51:29.730Z,100593.55
2023-03-19T13:53:35.352Z,100588.21
2023-03-19T13:55:33.127Z,100589.77
2023-03-19T13:57:34.794Z,100586.72
2023-03-19T13:59:36.216Z,100588.09
2023-03-19T14:01:29.207Z,100586.74
2023-03-19T14:03:25.945Z,100589.23
2023-03-19T14:05:21.665Z,100587.91
2023-03-19T14:07:21.367Z,100588.60
2023-03-19T14:09:38.326Z,100588.34
2023-03-19T14:11:38.088Z,100585.65
2023-03-19T14:13:47.517Z,100581.97
2023-03-19T14:15:48.285Z,100578.15
2023-03-19T14:17:47.240Z,100581.02
2023-03-19T14:19:42.108Z,100586.77
2023-03-19T14:21:46.568Z,100587.64
2023-03-19T14:23:46.329Z,100585.80
2023-03-19T14:26:05.868Z,100585.63
2023-03-19T14:28:17.297Z,100584.71
2023-03-19T14:30:21.793Z,100586.34
2023-03-19T14:32:28.855Z,100585.65
2023-03-19T14:34:34.550Z,100586.13
2023-03-19T14:36:56.428Z,100584.17
2023-03-19T14:38:57.020Z,100583.02
2023-03-19T14:40:53.043Z,100581.77
2023-03-19T14:43:02.356Z,100587.25
2023-03-19T14:45:14.497Z,100581.13
2023-03-19T14:47:44.142Z,100584.72
2023-03-19T14:49:57.731Z,100584.45
2023-03-19T14:52:01.072Z,100583.23
2023-03-19T14:54:04.898Z,100579.88
2023-03-19T14:56:10.952Z,100581.38
2023-03-19T14:58:06.082Z,100580.41
2023-03-19T15:00:09.978Z,100578.30
2023-03-19T15:02:13.872Z,100579.55
2023-03-19T15:04:10.816Z,100581.03
2023-03-19T15:06:07.861Z,100578.65
2023-03-19T15:08:07.656Z,100577.27
2023-03-19T15:10:06.447Z,100578.20
2023-03-19T15:12:20.486Z,100576.99
2023-03-19T15:14:49.277Z,100574.91
2023-03-19T15:16:54.321Z,100571.52
2023-03-19T15:18:47.564Z,100573.50
2023-03-19T15:20:47.246Z,100577.84
2023-03-19T15:22:40.217Z,100581.77
2023-03-19T15:24:34.686Z,100582.36
2023-03-19T15:26:38.914Z,100581.86
2023-03-19T15:28:44.650Z,100577.92
2023-03-19T15:30:52.173Z,100577.42
2023-03-19T15:32:56.397Z,100576.64
2023-03-19T15:34:57.113Z,100575.18
2023-03-19T15:36:55.180Z,100573.66
2023-03-19T15:38:54.927Z,100575.48
2023-03-19T15:40:48.597Z,100576.61
2023-03-19T15:42:43.475Z,100573.86
2023-03-19T15:44:49.694Z,100575.34
2023-03-19T15:46:44.684Z,100569.44
2023-03-19T15:49:11.224Z,100573.50
2023-03-19T15:51:07.176Z,100585.29
2023-03-19T15:53:06.634Z,100588.90
2023-03-19T15:55:03.178Z,100587.54
2023-03-19T15:56:57.828Z,100586.15
2023-03-19T15:58:57.761Z,100585.23
2023-03-19T16:00:54.678Z,100588.21
2023-03-19T16:02:51.724Z,100590.67
2023-03-19T16:05:14.054Z,100592.43
2023-03-19T16:07:02.317Z,100589.91
2023-03-19T16:11:32.592Z,100594.52
2023-03-19T16:13:32.218Z,100595.36
2023-03-19T16:15:38.092Z,100592.88
2023-03-19T16:17:35.695Z,100590.41
2023-03-19T16:19:38.974Z,100590.29
2023-03-19T16:21:44.587Z,100591.55
2023-03-19T16:23:46.973Z,100591.52
2023-03-19T16:25:46.180Z,100598.40
2023-03-19T16:27:40.893Z,100600.29
2023-03-19T16:29:43.810Z,100602.77
2023-03-19T16:31:46.230Z,100602.22
2023-03-19T16:33:39.587Z,100601.31
2023-03-19T16:35:34.804Z,100603.54
2023-03-19T16:37:40.229Z,100606.23
2023-03-19T16:39:37.401Z,100608.52
2023-03-19T16:41:32.576Z,100606.76
2023-03-19T16:43:34.309Z,100609.36
2023-03-19T16:45:28.804Z,100614.39
2023-03-19T16:47:22.780Z,100614.88
2023-03-19T16:49:15.770Z,100613.42
2023-03-19T16:51:18.286Z,100615.26
2023-03-19T16:53:22.338Z,100612.58
2023-03-19T16:55:30.098Z,100609.27
2023-03-19T16:57:23.074Z,100610.02
2023-03-19T16:59:23.860Z,100611.77
2023-03-19T17:01:23.435Z,100609.09
2023-03-19T17:03:18.496Z,100609.52
2023-03-19T17:05:16.180Z,100605.08
2023-03-19T17:07:10.207Z,100606.04
2023-03-19T17:09:03.897Z,100607.54
2023-03-19T17:10:58.368Z,100605.92
2023-03-19T17:12:53.667Z,100608.27
2023-03-19T17:14:52.363Z,100606.50
2023-03-19T17:16:50.770Z,100611.09
2023-03-19T17:18:45.105Z,100614.84
2023-03-19T17:20:46.347Z,100614.80
2023-03-19T17:22:39.507Z,100616.97
2023-03-19T17:24:33.986Z,100620.57
2023-03-19T17:26:28.893Z,100625.40
2023-03-19T17:28:22.848Z,100625.45
2023-03-19T17:30:16.210Z,100623.52
2023-03-19T17:32:18.071Z,100628.96
2023-03-19T17:34:19.127Z,100626.46
2023-03-19T17:36:12.565Z,100628.59
2023-03-19T17:38:05.616Z,100629.64
2023-03-19T17:39:58.979Z,100630.71
2023-03-19T17:41:54.086Z,100631.60
2023-03-19T17:43:47.854Z,100632.92
2023-03-19T17:45:46.288Z,100629.16
2023-03-19T17:47:39.468Z,100626.73
2023-03-19T17:49:32.827Z,100623.44
2023-03-19T17:51:26.183Z,100627.71
2023-03-19T17:53:19.241Z,100623.14
2023-03-19T17:55:19.173Z,100621.94
2023-03-19T17:57:14.145Z,100622.70
2023-03-19T17:59:07.460Z,100620.98
2023-03-19T18:01:00.879Z,100619.47
2023-03-19T18:02:56.891Z,100623.67
2023-03-19T18:04:52.369Z,100625.08
2023-03-19T18:06:55.599Z,100621.55
2023-03-19T18:08:48.833Z,100618.86
2023-03-19T18:10:42.448Z,100617.91
2023-03-19T18:12:36.575Z,100613.61
2023-03-19T18:14:29.623Z,100613.17
2023-03-19T18:16:28.391Z,100614.94
2023-03-19T18:18:22.060Z,100618.61
2023-03-19T18:20:18.885Z,100625.17
2023-03-19T18:22:17.811Z,100624.86
2023-03-19T18:24:12.685Z,100626.80
2023-03-19T18:26:06.262Z,100626.61
2023-03-19T18:27:59.311Z,100629.36
2023-03-19T18:29:52.669Z,100630.09
2023-03-19T18:31:49.263Z,100632.14
2023-03-19T18:33:46.203Z,100633.35
2023-03-19T18:35:42.704Z,100634.66
2023-03-19T18:37:36.337Z,100633.23
2023-03-19T18:39:30.315Z,100632.54
2023-03-19T18:41:26.213Z,100632.33
2023-03-19T18:43:31.671Z,100630.38
2023-03-19T18:45:30.672Z,100628.49
2023-03-19T18:47:23.971Z,100626.29
2023-03-19T18:49:24.175Z,100625.00
2023-03-19T18:51:17.592Z,100623.02
2023-03-19T18:53:11.668Z,100623.45
2023-03-19T18:55:05.639Z,100623.20
2023-03-19T18:57:02.516Z,100622.96
2023-03-19T18:58:58.323Z,100626.56
2023-03-19T19:00:53.844Z,100625.63
2023-03-19T19:02:49.515Z,100627.58
2023-03-19T19:04:44.610Z,100627.71
2023-03-19T19:06:47.799Z,100626.36
2023-03-19T19:08:43.104Z,100627.63
2023-03-19T19:10:40.070Z,100626.12
2023-03-19T19:12:35.447Z,100628.88
2023-03-19T19:14:29.532Z,100626.63
2023-03-19T19:16:35.923Z,100629.28
2023-03-19T19:18:32.521Z,100628.19
2023-03-19T19:20:29.769Z,100625.38
2023-03-19T19:22:23.443Z,100628.70
2023-03-19T19:24:17.830Z,100634.46
2023-03-19T19:26:22.333Z,100626.51
2023-03-19T19:28:27.803Z,100631.10
2023-03-19T19:30:22.873Z,100629.70
2023-03-19T19:32:25.750Z,100631.49
2023-03-19T19:34:18.836Z,100633.37
2023-03-19T19:36:11.882Z,100634.63
2023-03-19T19:38:05.012Z,100636.13
2023-03-19T19:39:57.978Z,100631.77
2023-03-19T19:41:54.406Z,100633.16
2023-03-19T19:43:48.981Z,100633.75
2023-03-19T19:45:43.854Z,100633.29
2023-03-19T19:47:36.940Z,100633.11
2023-03-19T19:49:31.206Z,100631.43
2023-03-19T19:51:26.967Z,100634.42
2023-03-19T19:53:23.819Z,100637.61
2023-03-19T19:55:19.648Z,100637.38
2023-03-19T19:57:18.934Z,100643.08
2023-03-19T19:59:18.204Z,100643.86
2023-03-19T20:01:24.142Z,100644.18
2023-03-19T20:03:26.302Z,100643.44
2023-03-19T20:05:23.300Z,100643.58
2023-03-19T20:07:16.278Z,100647.00
2023-03-19T20:09:09.430Z,100642.64
2023-03-19T20:11:02.577Z,100645.88
2023-03-19T20:13:01.500Z,100646.55
2023-03-19T20:14:54.530Z,100650.67
2023-03-19T20:16:47.565Z,100650.02
2023-03-19T20:18:43.600Z,100650.83
2023-03-19T20:20:39.616Z,100654.48
2023-03-19T20:22:33.581Z,100654.28
2023-03-19T20:24:26.837Z,100657.95
2023-03-19T20:26:23.515Z,100659.57
2023-03-19T20:28:22.337Z,100658.81
2023-03-19T20:30:41.384Z,100663.63
2023-03-19T20:32:42.566Z,100661.56
2023-03-19T20:34:39.344Z,100659.60
2023-03-19T20:36:32.812Z,100655.92
2023-03-19T20:38:27.545Z,100656.86
2023-03-19T20:40:24.288Z,100659.52
2023-03-19T20:42:19.499Z,100662.56
2023-03-19T20:44:25.715Z,100660.55
2023-03-19T20:46:22.152Z,100660.78
2023-03-19T20:48:17.261Z,100656.14
2023-03-19T20:50:19.435Z,100657.13
2023-03-19T20:52:16.555Z,100658.39
2023-03-19T20:54:12.139Z,100662.19
2023-03-19T20:56:11.383Z,100662.78
2023-03-19T20:58:26.736Z,100664.67
2023-03-19T21:00:27.825Z,100663.48
2023-03-19T21:02:27.085Z,100661.81
2023-03-19T21:04:22.096Z,100661.09
2023-03-19T21:06:27.374Z,100660.36
2023-03-19T21:08:32.540Z,100662.09
2023-03-19T21:10:37.692Z,100660.03
2023-03-19T21:12:34.121Z,100660.10
2023-03-19T21:14:27.872Z,100660.38
2023-03-19T21:16:25.483Z,100659.55
2023-03-19T21:18:18.636Z,100662.20
2023-03-19T21:20:21.224Z,100667.46
2023-03-19T21:22:24.684Z,100667.95
2023-03-19T21:24:19.871Z,100665.71
2023-03-19T21:26:19.344Z,100665.84
2023-03-19T21:28:34.852Z,100664.76
2023-03-19T21:30:28.107Z,100661.02
2023-03-19T21:32:21.469Z,100661.17
2023-03-19T21:34:14.833Z,100663.35
2023-03-19T21:36:09.749Z,100663.55
2023-03-19T21:38:02.765Z,100660.81
2023-03-19T21:39:57.101Z,100659.86
2023-03-19T21:41:50.917Z,100662.52
2023-03-19T21:43:47.761Z,100661.83
2023-03-19T21:45:41.274Z,100658.42
2023-03-19T21:47:34.277Z,100657.03
2023-03-19T21:49:27.230Z,100655.23
2023-03-19T21:51:20.559Z,100658.61
2023-03-19T21:53:13.496Z,100657.70
2023-03-19T21:55:07.036Z,100656.91
2023-03-19T21:57:00.037Z,100656.16
2023-03-19T21:58:53.492Z,100654.11
2023-03-19T22:00:47.309Z,100657.86
2023-03-19T22:02:45.147Z,100658.41
2023-03-19T22:04:38.091Z,100656.80
2023-03-19T22:06:31.356Z,100659.91
2023-03-19T22:08:25.299Z,100655.94
2023-03-19T22:10:20.353Z,100655.23
2023-03-19T22:12:26.131Z,100650.18
2023-03-19T22:14:26.707Z,100650.20
2023-03-19T22:16:24.011Z,100644.05
2023-03-19T22:18:17.316Z,100651.34
2023-03-19T22:20:22.922Z,100646.23
2023-03-19T22:22:15.868Z,100648.15
2023-03-19T22:24:09.122Z,100648.11
2023-03-19T22:26:02.177Z,100651.57
2023-03-19T22:27:56.253Z,100648.73
2023-03-19T22:29:49.301Z,100648.20
2023-03-19T22:31:42.473Z,100645.46
2023-03-19T22:33:35.711Z,100644.30
2023-03-19T22:35:28.864Z,100642.88
2023-03-19T22:37:27.542Z,100642.45